createdAt,value
2018-11-14T00:00:36.676Z,79.07
2018-11-14T00:03:07.973Z,79.29
2018-11-14T00:05:38.544Z,79.25
2018-11-14T00:08:09.275Z,79.01
2018-11-14T00:10:39.936Z,79.14
2018-11-14T00:13:10.774Z,78.89
2018-11-14T00:15:41.420Z,79.48
2018-11-14T00:18:12.028Z,79.13
2018-11-14T00:20:42.660Z,79.84
2018-11-14T00:23:13.321Z,79.93
2018-11-14T00:25:43.957Z,79.43
2018-11-14T00:28:14.639Z,79.00
2018-11-14T00:31:16.396Z,78.97
2018-11-14T00:33:47.066Z,78.55
2018-11-14T00:36:17.731Z,78.90
2018-11-14T00:38:48.389Z,79.72
2018-11-14T00:41:19.025Z,80.33
2018-11-14T00:43:49.715Z,80.28
2018-11-14T00:46:20.309Z,80.17
2018-11-14T00:48:50.952Z,79.93
2018-11-14T00:51:21.564Z,80.08
2018-11-14T00:53:52.215Z,80.84
2018-11-14T00:56:22.850Z,80.43
2018-11-14T00:58:53.511Z,80.22
2018-11-14T01:01:24.265Z,80.64
2018-11-14T01:03:54.959Z,79.55
2018-11-14T01:06:25.601Z,79.52
2018-11-14T01:08:56.325Z,79.69
2018-11-14T01:11:27.262Z,80.03
2018-11-14T01:13:57.993Z,80.05
2018-11-14T01:16:28.655Z,80.13
2018-11-14T01:18:59.275Z,80.80
2018-11-14T01:21:29.945Z,80.57
2018-11-14T01:24:00.555Z,80.22
2018-11-14T01:26:31.220Z,80.74
2018-11-14T01:29:01.859Z,81.15
2018-11-14T01:31:32.540Z,81.44
2018-11-14T01:34:03.295Z,80.58
2018-11-14T01:36:33.898Z,80.88
2018-11-14T01:39:06.730Z,80.59
2018-11-14T01:41:37.533Z,80.75
2018-11-14T01:44:08.383Z,80.46
2018-11-14T01:46:39.458Z,80.36
2018-11-14T01:49:10.830Z,81.16
2018-11-14T01:51:41.510Z,81.47
2018-11-14T01:54:12.144Z,81.19
2018-11-14T01:56:42.848Z,80.64
2018-11-14T01:59:13.526Z,80.56
2018-11-14T02:01:44.181Z,80.89
2018-11-14T02:04:14.847Z,81.16
2018-11-14T02:06:45.482Z,80.96
2018-11-14T02:09:16.173Z,81.23
2018-11-14T02:11:46.825Z,81.01
2018-11-14T02:14:17.502Z,81.20
2018-11-14T02:16:48.180Z,80.98
2018-11-14T02:19:18.820Z,80.76
2018-11-14T02:21:49.509Z,80.58
2018-11-14T02:24:20.135Z,80.47
2018-11-14T02:26:50.890Z,80.35
2018-11-14T02:29:21.492Z,81.06
2018-11-14T02:31:52.120Z,81.10
2018-11-14T02:34:22.773Z,81.04
2018-11-14T02:36:53.830Z,81.13
2018-11-14T02:39:24.392Z,80.58
2018-11-14T02:41:55.073Z,80.64
2018-11-14T02:44:25.736Z,80.51
2018-11-14T02:46:56.385Z,80.75
2018-11-14T02:49:27.019Z,80.88
2018-11-14T02:51:57.658Z,80.32
2018-11-14T02:54:28.343Z,80.63
2018-11-14T02:56:58.956Z,81.14
2018-11-14T02:59:29.714Z,80.47
2018-11-14T03:02:00.320Z,81.03
2018-11-14T03:04:30.986Z,80.75
2018-11-14T03:07:01.652Z,81.00
2018-11-14T03:09:32.319Z,80.68
2018-11-14T03:12:03.033Z,80.74
2018-11-14T03:14:33.614Z,80.72
2018-11-14T03:17:04.281Z,80.83
2018-11-14T03:19:34.991Z,80.84
2018-11-14T03:22:05.730Z,80.65
2018-11-14T03:24:36.457Z,80.70
2018-11-14T03:27:07.479Z,80.76
2018-11-14T03:29:38.106Z,80.87
2018-11-14T03:32:08.785Z,81.10
2018-11-14T03:34:39.447Z,81.12
2018-11-14T03:37:10.041Z,81.88
2018-11-14T03:39:40.690Z,81.38
2018-11-14T03:42:11.404Z,81.51
2018-11-14T03:44:42.044Z,81.30
2018-11-14T03:47:12.696Z,81.16
2018-11-14T03:49:43.395Z,81.32
2018-11-14T03:52:14.067Z,81.37
2018-11-14T03:54:44.719Z,80.93
2018-11-14T03:57:15.345Z,80.78
2018-11-14T03:59:46.015Z,80.94
2018-11-14T04:02:16.688Z,81.38
2018-11-14T04:04:47.328Z,81.25
2018-11-14T04:07:18.001Z,81.10
2018-11-14T04:09:48.633Z,81.07
2018-11-14T04:12:19.315Z,81.34
2018-11-14T04:14:49.979Z,81.18
2018-11-14T04:17:20.659Z,81.34
2018-11-14T04:19:51.279Z,81.25
2018-11-14T04:22:21.980Z,81.68
2018-11-14T04:24:52.575Z,81.45
2018-11-14T04:27:23.207Z,81.39
2018-11-14T04:29:53.851Z,82.03
2018-11-14T04:32:24.507Z,82.11
2018-11-14T04:34:55.133Z,81.99
2018-11-14T04:37:25.788Z,82.01
2018-11-14T04:39:56.472Z,81.92
2018-11-14T04:42:27.068Z,82.18
2018-11-14T04:44:57.725Z,81.85
2018-11-14T04:47:28.395Z,82.41
2018-11-14T04:49:59.064Z,82.55
2018-11-14T04:52:29.674Z,82.54
2018-11-14T04:55:00.282Z,82.90
2018-11-14T04:57:30.928Z,83.03
2018-11-14T05:00:01.554Z,82.94
2018-11-14T05:02:32.186Z,83.39
2018-11-14T05:05:02.784Z,83.47
2018-11-14T05:07:33.411Z,83.54
2018-11-14T05:10:04.172Z,83.35
2018-11-14T05:12:34.843Z,83.43
2018-11-14T05:15:05.809Z,83.65
2018-11-14T05:17:36.518Z,83.49
2018-11-14T05:20:09.132Z,83.95
2018-11-14T05:22:39.809Z,84.00
2018-11-14T05:25:11.456Z,84.18
2018-11-14T05:27:42.421Z,84.61
2018-11-14T05:30:17.079Z,84.55
2018-11-14T05:32:48.647Z,84.61
2018-11-14T05:35:19.378Z,84.63
2018-11-14T05:37:50.405Z,84.81
2018-11-14T05:40:22.255Z,84.79
2018-11-14T05:42:53.433Z,84.95
2018-11-14T05:45:26.335Z,85.20
2018-11-14T05:47:56.992Z,84.86
2018-11-14T05:50:27.615Z,84.66
2018-11-14T05:52:58.307Z,85.14
2018-11-14T05:55:28.983Z,85.17
2018-11-14T05:57:59.652Z,85.11
2018-11-14T06:00:32.184Z,85.10
2018-11-14T06:03:03.884Z,85.24
2018-11-14T06:05:34.641Z,85.32
2018-11-14T06:08:05.387Z,85.21
2018-11-14T06:10:36.027Z,85.28
2018-11-14T06:13:06.795Z,85.54
2018-11-14T06:15:37.445Z,85.29
2018-11-14T06:18:08.111Z,84.99
2018-11-14T06:20:38.818Z,85.23
2018-11-14T06:23:10.818Z,84.97
2018-11-14T06:25:41.465Z,85.13
2018-11-14T06:28:12.361Z,85.34
2018-11-14T06:30:43.361Z,85.03
2018-11-14T06:33:14.060Z,85.21
2018-11-14T06:35:44.661Z,84.76
2018-11-14T06:38:15.369Z,85.05
2018-11-14T06:40:46.224Z,85.04
2018-11-14T06:43:16.945Z,84.90
2018-11-14T06:45:47.549Z,84.62
2018-11-14T06:48:18.388Z,84.62
2018-11-14T06:50:49.110Z,84.68
2018-11-14T06:53:19.822Z,84.73
2018-11-14T06:55:50.544Z,84.52
2018-11-14T06:58:21.235Z,84.69
2018-11-14T07:00:52.009Z,84.32
2018-11-14T07:03:22.874Z,83.73
2018-11-14T07:05:53.624Z,82.40
2018-11-14T07:08:24.236Z,81.81
2018-11-14T07:10:54.942Z,79.97
2018-11-14T07:13:25.620Z,78.55
2018-11-14T07:15:56.309Z,77.52
2018-11-14T07:18:26.982Z,76.08
2018-11-14T07:20:57.624Z,73.78
2018-11-14T07:23:28.408Z,68.90
2018-11-14T07:25:59.062Z,65.08
2018-11-14T07:28:29.783Z,61.40
2018-11-14T07:31:00.466Z,57.98
2018-11-14T07:33:31.134Z,55.43
2018-11-14T07:36:01.977Z,54.05
2018-11-14T07:38:42.735Z,52.79
2018-11-14T07:41:15.475Z,53.20
2018-11-14T07:43:46.222Z,52.02
2018-11-14T07:46:16.914Z,51.58
2018-11-14T07:48:48.741Z,51.74
2018-11-14T07:51:19.504Z,50.59
2018-11-14T07:53:50.248Z,49.23
2018-11-14T07:56:20.993Z,47.92
2018-11-14T07:58:51.680Z,47.27
2018-11-14T08:01:22.501Z,47.35
2018-11-14T08:03:53.169Z,47.12
2018-11-14T08:06:23.889Z,45.60
2018-11-14T08:08:54.636Z,44.14
2018-11-14T08:11:25.424Z,44.70
2018-11-14T08:13:56.126Z,43.24
2018-11-14T08:16:26.800Z,41.40
2018-11-14T08:18:57.560Z,40.81
2018-11-14T08:21:28.209Z,41.56
2018-11-14T08:23:58.824Z,39.73
2018-11-14T08:26:29.574Z,39.88
2018-11-14T08:29:00.284Z,39.10
2018-11-14T08:31:31.088Z,39.09
2018-11-14T08:34:01.794Z,37.53
2018-11-14T08:36:35.580Z,36.13
2018-11-14T08:39:09.013Z,34.43
2018-11-14T08:41:39.693Z,36.78
2018-11-14T08:44:10.387Z,36.24
2018-11-14T08:46:41.112Z,36.75
2018-11-14T08:49:11.824Z,38.02
2018-11-14T08:51:42.559Z,38.78
2018-11-14T08:54:13.208Z,38.32
2018-11-14T08:56:43.903Z,38.79
2018-11-14T08:59:14.604Z,35.80
2018-11-14T09:01:45.332Z,36.03
2018-11-14T09:04:16.072Z,34.52
2018-11-14T09:06:47.392Z,35.32
2018-11-14T09:09:18.104Z,34.79
2018-11-14T09:11:48.788Z,34.25
2018-11-14T09:14:19.568Z,33.05
2018-11-14T09:16:50.266Z,33.57
2018-11-14T09:19:20.910Z,31.51
2018-11-14T09:21:51.666Z,32.15
2018-11-14T09:24:22.332Z,35.06
2018-11-14T09:26:53.043Z,35.07
2018-11-14T09:29:23.747Z,36.20
2018-11-14T09:31:54.440Z,35.18
2018-11-14T09:34:25.074Z,34.48
2018-11-14T09:36:55.759Z,35.12
2018-11-14T09:39:26.422Z,34.79
2018-11-14T09:41:57.119Z,34.04
2018-11-14T09:44:27.769Z,33.46
2018-11-14T09:46:58.522Z,33.89
2018-11-14T09:49:29.306Z,32.17
2018-11-14T09:51:59.934Z,31.12
2018-11-14T09:54:30.628Z,31.20
2018-11-14T09:57:01.410Z,32.99
2018-11-14T09:59:32.084Z,35.37
2018-11-14T10:02:02.750Z,35.49
2018-11-14T10:04:33.396Z,35.08
2018-11-14T10:07:04.116Z,34.72
2018-11-14T10:09:34.763Z,33.81
2018-11-14T10:12:06.166Z,33.19
2018-11-14T10:14:36.865Z,31.87
2018-11-14T10:17:07.752Z,32.19
2018-11-14T10:19:38.477Z,33.05
2018-11-14T10:22:09.252Z,32.69
2018-11-14T10:24:39.931Z,33.03
2018-11-14T10:27:10.796Z,34.45
2018-11-14T10:29:42.842Z,33.14
2018-11-14T10:32:13.543Z,32.65
2018-11-14T10:34:44.185Z,31.21
2018-11-14T10:37:14.824Z,30.05
2018-11-14T10:39:45.834Z,30.30
2018-11-14T10:42:16.584Z,31.14
2018-11-14T10:45:01.744Z,32.50
2018-11-14T10:47:32.408Z,33.89
2018-11-14T10:50:03.124Z,33.96
2018-11-14T10:52:33.772Z,33.75
2018-11-14T10:55:04.492Z,33.58
2018-11-14T10:57:35.635Z,33.32
2018-11-14T11:00:16.655Z,33.12
2018-11-14T11:02:52.385Z,33.50
2018-11-14T11:06:31.100Z,34.72
2018-11-14T11:09:06.876Z,34.17
2018-11-14T11:11:42.742Z,35.11
2018-11-14T11:14:18.619Z,34.11
2018-11-14T11:16:54.390Z,35.90
2018-11-14T11:19:26.514Z,38.63
2018-11-14T11:21:57.227Z,40.44
2018-11-14T11:24:27.897Z,39.89
2018-11-14T11:26:58.579Z,41.20
2018-11-14T11:29:29.231Z,41.94
2018-11-14T11:31:59.990Z,41.26
2018-11-14T11:34:30.620Z,41.16
2018-11-14T11:37:01.295Z,41.29
2018-11-14T11:39:32.012Z,40.15
2018-11-14T11:42:02.671Z,40.38
2018-11-14T11:44:33.411Z,40.30
2018-11-14T11:47:04.153Z,41.26
2018-11-14T11:49:34.817Z,40.35
2018-11-14T11:52:05.687Z,40.16
2018-11-14T11:54:36.378Z,40.62
2018-11-14T11:57:07.336Z,40.30
2018-11-14T11:59:38.095Z,42.86
2018-11-14T12:02:08.687Z,42.51
2018-11-14T12:04:39.373Z,41.65
2018-11-14T12:07:10.072Z,41.43
2018-11-14T12:09:40.888Z,41.94
2018-11-14T12:12:11.671Z,41.39
2018-11-14T12:14:42.315Z,42.77
2018-11-14T12:17:13.335Z,42.50
2018-11-14T12:19:43.944Z,42.85
2018-11-14T12:22:14.592Z,43.35
2018-11-14T12:24:45.210Z,44.09
2018-11-14T12:27:15.878Z,45.68
2018-11-14T12:29:46.515Z,45.03
2018-11-14T12:32:17.588Z,44.28
2018-11-14T12:34:48.332Z,43.76
2018-11-14T12:37:18.950Z,43.12
2018-11-14T12:39:49.651Z,42.69
2018-11-14T12:42:20.307Z,41.48
2018-11-14T12:44:51.044Z,42.77
2018-11-14T12:47:21.679Z,42.57
2018-11-14T12:49:52.424Z,42.41
2018-11-14T12:52:23.102Z,42.67
2018-11-14T12:54:53.788Z,44.09
2018-11-14T12:57:24.507Z,43.49
2018-11-14T12:59:55.357Z,42.86
2018-11-14T13:02:26.037Z,42.50
2018-11-14T13:04:56.730Z,42.58
2018-11-14T13:07:27.447Z,41.99
2018-11-14T13:09:58.141Z,41.00
2018-11-14T13:12:28.782Z,41.81
2018-11-14T13:14:59.512Z,43.11
2018-11-14T13:17:30.259Z,43.48
2018-11-14T13:20:01.374Z,43.40
2018-11-14T13:22:32.106Z,42.87
2018-11-14T13:25:02.769Z,43.31
2018-11-14T13:27:33.443Z,42.26
2018-11-14T13:30:04.216Z,41.92
2018-11-14T13:32:34.899Z,41.12
2018-11-14T13:35:07.341Z,41.08
2018-11-14T13:37:37.988Z,42.27
2018-11-14T13:40:09.725Z,42.47
2018-11-14T13:42:40.630Z,42.49
2018-11-14T13:45:12.803Z,43.13
2018-11-14T13:47:43.780Z,43.56
2018-11-14T13:50:19.286Z,44.01
2018-11-14T13:52:49.805Z,43.76
2018-11-14T13:55:21.622Z,44.68
2018-11-14T13:57:52.935Z,45.50
2018-11-14T14:00:23.929Z,47.07
2018-11-14T14:02:54.943Z,47.16
2018-11-14T14:05:25.898Z,47.98
2018-11-14T14:07:56.554Z,48.82
2018-11-14T14:10:27.225Z,48.84
2018-11-14T14:12:57.929Z,49.28
2018-11-14T14:15:28.941Z,49.53
2018-11-14T14:17:59.659Z,49.93
2018-11-14T14:20:30.406Z,49.60
2018-11-14T14:23:01.088Z,49.83
2018-11-14T14:25:31.750Z,49.83
2018-11-14T14:28:02.491Z,50.66
2018-11-14T14:30:33.294Z,51.53
2018-11-14T14:33:03.974Z,51.61
2018-11-14T14:35:34.637Z,52.39
2018-11-14T14:38:05.586Z,52.52
2018-11-14T14:40:36.279Z,52.74
2018-11-14T14:43:07.178Z,52.79
2018-11-14T14:45:37.985Z,52.55
2018-11-14T14:48:08.708Z,52.59
2018-11-14T14:50:39.493Z,53.33
2018-11-14T14:53:10.185Z,53.34
2018-11-14T14:55:40.960Z,53.42
2018-11-14T14:58:11.636Z,54.10
2018-11-14T15:00:42.310Z,54.81
2018-11-14T15:03:12.975Z,54.80
2018-11-14T15:05:43.678Z,55.20
2018-11-14T15:08:14.324Z,55.61
2018-11-14T15:10:45.010Z,56.06
2018-11-14T15:13:15.704Z,56.21
2018-11-14T15:15:46.548Z,56.64
2018-11-14T15:18:17.150Z,56.73
2018-11-14T15:20:47.840Z,57.16
2018-11-14T15:23:18.528Z,57.47
2018-11-14T15:25:49.168Z,57.64
2018-11-14T15:28:19.868Z,57.88
2018-11-14T15:30:50.516Z,58.72
2018-11-14T15:33:21.197Z,58.78
2018-11-14T15:35:51.857Z,58.49
2018-11-14T15:38:22.531Z,59.05
2018-11-14T15:40:53.263Z,59.41
2018-11-14T15:43:23.977Z,59.93
2018-11-14T15:45:54.863Z,60.42
2018-11-14T15:48:25.559Z,60.43
2018-11-14T15:50:56.301Z,61.16
2018-11-14T15:53:26.956Z,61.21
2018-11-14T15:55:57.739Z,61.50
2018-11-14T15:58:28.436Z,62.04
2018-11-14T16:00:59.105Z,62.43
2018-11-14T16:03:29.819Z,62.51
2018-11-14T16:06:00.492Z,63.17
2018-11-14T16:08:31.217Z,63.46
2018-11-14T16:11:01.999Z,63.79
2018-11-14T16:13:32.692Z,64.28
2018-11-14T16:16:03.594Z,64.55
2018-11-14T16:18:35.463Z,64.98
2018-11-14T16:21:06.416Z,64.94
2018-11-14T16:23:37.197Z,65.13
2018-11-14T16:26:07.931Z,65.05
2018-11-14T16:28:38.737Z,65.21
2018-11-14T16:31:09.515Z,65.41
2018-11-14T16:33:40.217Z,65.67
2018-11-14T16:36:10.937Z,65.66
2018-11-14T16:38:41.671Z,66.08
2018-11-14T16:41:12.516Z,66.41
2018-11-14T16:43:43.233Z,66.72
2018-11-14T16:46:14.007Z,67.32
2018-11-14T16:48:44.745Z,67.26
2018-11-14T16:51:15.525Z,67.66
2018-11-14T16:53:46.290Z,67.67
2018-11-14T16:56:16.983Z,67.75
2018-11-14T16:58:47.875Z,68.12
2018-11-14T17:01:18.773Z,68.32
2018-11-14T17:03:49.557Z,68.40
2018-11-14T17:06:20.199Z,68.79
2018-11-14T17:08:50.853Z,69.05
2018-11-14T17:11:21.554Z,69.14
2018-11-14T17:13:52.201Z,69.40
2018-11-14T17:16:22.884Z,69.69
2018-11-14T17:18:53.543Z,69.77
2018-11-14T17:21:24.241Z,69.79
2018-11-14T17:23:54.961Z,70.32
2018-11-14T17:26:25.620Z,70.35
2018-11-14T17:28:56.253Z,70.46
2018-11-14T17:31:26.922Z,70.65
2018-11-14T17:33:57.735Z,71.00
2018-11-14T17:36:28.421Z,71.54
2018-11-14T17:38:59.088Z,71.09
2018-11-14T17:41:29.828Z,71.07
2018-11-14T17:44:00.464Z,70.59
2018-11-14T17:46:31.187Z,70.06
2018-11-14T17:49:01.935Z,70.04
2018-11-14T17:51:32.681Z,69.89
2018-11-14T17:54:03.396Z,69.27
2018-11-14T17:56:34.133Z,69.75
2018-11-14T17:59:04.907Z,69.84
2018-11-14T18:01:35.616Z,69.79
2018-11-14T18:04:06.468Z,70.09
2018-11-14T18:06:37.239Z,69.81
2018-11-14T18:09:13.113Z,70.23
2018-11-14T18:11:43.883Z,70.08
2018-11-14T18:14:14.598Z,70.22
2018-11-14T18:16:45.307Z,69.76
2018-11-14T18:19:16.051Z,69.79
2018-11-14T18:21:46.778Z,70.52
2018-11-14T18:24:17.866Z,70.18
2018-11-14T18:26:48.523Z,70.43
2018-11-14T18:29:19.296Z,69.84
2018-11-14T18:31:49.949Z,70.17
2018-11-14T18:34:20.620Z,70.45
2018-11-14T18:36:51.298Z,70.23
2018-11-14T18:39:21.939Z,70.43
2018-11-14T18:41:52.598Z,70.30
2018-11-14T18:44:23.288Z,70.30
2018-11-14T18:46:53.943Z,70.74
2018-11-14T18:49:24.626Z,70.06
2018-11-14T18:51:55.286Z,69.98
2018-11-14T18:54:25.949Z,70.37
2018-11-14T18:56:56.634Z,70.37
2018-11-14T18:59:27.279Z,70.20
2018-11-14T19:01:57.945Z,70.31
2018-11-14T19:04:28.654Z,70.64
2018-11-14T19:06:59.366Z,70.02
2018-11-14T19:09:29.981Z,70.37
2018-11-14T19:12:00.643Z,70.39
2018-11-14T19:14:31.290Z,70.39
2018-11-14T19:17:01.960Z,70.40
2018-11-14T19:19:32.980Z,70.24
2018-11-14T19:22:03.677Z,70.49
2018-11-14T19:24:34.568Z,70.46
2018-11-14T19:27:06.456Z,70.54
2018-11-14T19:29:37.586Z,70.65
2018-11-14T19:32:08.781Z,70.64
2018-11-14T19:34:39.620Z,71.05
2018-11-14T19:37:10.745Z,70.94
2018-11-14T19:39:41.704Z,70.99
2018-11-14T19:42:12.554Z,71.12
2018-11-14T19:44:43.376Z,71.61
2018-11-14T19:47:14.457Z,70.98
2018-11-14T19:49:45.989Z,71.02
2018-11-14T19:52:16.654Z,71.02
2018-11-14T19:54:47.391Z,71.23
2018-11-14T19:57:18.059Z,71.18
2018-11-14T19:59:48.778Z,71.42
2018-11-14T20:02:19.465Z,71.34
2018-11-14T20:04:50.362Z,71.41
2018-11-14T20:07:21.115Z,71.30
2018-11-14T20:09:51.781Z,71.73
2018-11-14T20:12:22.560Z,71.81
2018-11-14T20:14:53.345Z,72.14
2018-11-14T20:17:24.091Z,71.89
2018-11-14T20:19:54.813Z,72.03
2018-11-14T20:22:25.526Z,72.12
2018-11-14T20:24:56.432Z,72.39
2018-11-14T20:27:27.152Z,72.39
2018-11-14T20:29:57.819Z,72.77
2018-11-14T20:32:28.479Z,72.36
2018-11-14T20:34:59.200Z,72.75
2018-11-14T20:37:30.143Z,72.75
2018-11-14T20:40:01.204Z,72.39
2018-11-14T20:42:32.081Z,72.46
2018-11-14T20:45:02.781Z,72.84
2018-11-14T20:47:33.520Z,72.89
2018-11-14T20:50:05.136Z,72.65
2018-11-14T20:52:35.774Z,72.86
2018-11-14T20:55:08.510Z,73.43
2018-11-14T20:57:40.054Z,73.38
2018-11-14T21:00:14.742Z,73.50
2018-11-14T21:02:45.390Z,73.17
2018-11-14T21:05:16.140Z,73.50
2018-11-14T21:07:46.776Z,73.50
2018-11-14T21:10:18.764Z,73.71
2018-11-14T21:12:50.443Z,73.75
2018-11-14T21:15:26.502Z,73.97
2018-11-14T21:17:57.995Z,74.15
2018-11-14T21:20:28.779Z,73.69
2018-11-14T21:22:59.536Z,74.06
2018-11-14T21:25:30.160Z,74.18
2018-11-14T21:28:00.849Z,74.18
2018-11-14T21:30:31.800Z,74.21
2018-11-14T21:33:02.547Z,74.01
2018-11-14T21:35:34.717Z,74.14
2018-11-14T21:38:07.047Z,74.10
2018-11-14T21:40:37.775Z,74.26
2018-11-14T21:43:08.960Z,73.81
2018-11-14T21:45:39.669Z,73.93
2018-11-14T21:48:18.530Z,74.10
2018-11-14T21:50:49.201Z,74.34
2018-11-14T21:53:20.054Z,74.18
2018-11-14T21:55:50.632Z,74.11
2018-11-14T21:58:21.331Z,74.24
2018-11-14T22:00:52.072Z,74.17
2018-11-14T22:03:22.752Z,74.35
2018-11-14T22:05:53.476Z,74.31
2018-11-14T22:08:24.196Z,74.67
2018-11-14T22:10:54.958Z,74.81
2018-11-14T22:13:25.730Z,74.73
2018-11-14T22:15:56.460Z,74.81
2018-11-14T22:18:27.146Z,74.97
2018-11-14T22:20:57.822Z,75.08
2018-11-14T22:23:28.487Z,74.89
2018-11-14T22:25:59.117Z,74.57
2018-11-14T22:28:29.804Z,75.01
2018-11-14T22:31:00.496Z,75.17
2018-11-14T22:33:31.116Z,75.48
2018-11-14T22:36:01.759Z,75.27
2018-11-14T22:38:32.468Z,74.84
2018-11-14T22:41:03.144Z,75.45
2018-11-14T22:43:33.787Z,76.29
2018-11-14T22:46:04.461Z,75.23
2018-11-14T22:48:35.183Z,74.97
2018-11-14T22:51:06.834Z,76.11
2018-11-14T22:53:37.467Z,75.02
2018-11-14T22:56:08.143Z,74.72
2018-11-14T22:58:38.811Z,74.88
2018-11-14T23:01:09.530Z,75.77
2018-11-14T23:03:40.166Z,75.36
2018-11-14T23:06:10.813Z,75.59
2018-11-14T23:08:41.466Z,76.00
2018-11-14T23:11:12.076Z,76.15
2018-11-14T23:13:42.761Z,75.88
2018-11-14T23:16:13.397Z,76.54
2018-11-14T23:18:44.071Z,76.59
2018-11-14T23:21:14.698Z,76.76
2018-11-14T23:23:45.487Z,77.50
2018-11-14T23:26:16.117Z,76.98
2018-11-14T23:28:46.759Z,77.45
2018-11-14T23:31:17.415Z,77.28
2018-11-14T23:33:48.057Z,77.12
2018-11-14T23:36:18.692Z,77.84
2018-11-14T23:38:49.345Z,77.34
2018-11-14T23:41:19.992Z,77.66
2018-11-14T23:43:50.685Z,77.53
2018-11-14T23:46:21.355Z,77.55
2018-11-14T23:48:52.018Z,77.42
2018-11-14T23:51:22.676Z,77.94
2018-11-14T23:53:53.334Z,77.98
2018-11-14T23:56:23.975Z,77.95
2018-11-14T23:58:54.611Z,78.01
